Time;durP1;ratioP1;P1;durP2;ratioP2;P2;SDS_P1;SDS_P2;PMS_P1;PMS_P2;Temp;Humidity;BMP_temperature;BMP_pressure;BME280_temperature;BME280_humidity;BME280_pressure;Samples;Min_cycle;Max_cycle;Signal;HPM_P1;HPM_P2
2021/03/15 04:03:53;;;;;;;10.20;7.08;;;;;;;1.23;100.00;100130.02;1780409;76;21212;-64
2021/03/15 04:06:21;;;;;;;10.88;7.03;;;;;;;1.23;100.00;100134.34;1805953;77;22123;-64
2021/03/15 04:09:05;;;;;;;13.75;9.35;;;;;;;1.23;100.00;100130.50;1744484;79;21187;-64
2021/03/15 04:11:33;;;;;;;;;;;;;;;1.22;100.00;100134.81;1766861;79;21583;-65
2021/03/15 04:14:03;;;;;;;15.88;9.10;;;;;;;1.21;100.00;100131.89;1763893;79;20119;-63
2021/03/15 04:16:35;;;;;;;12.33;7.67;;;;;;;1.20;100.00;100134.92;1814800;77;21548;-64
2021/03/15 04:19:05;;;;;;;13.22;8.90;;;;;;;1.23;100.00;100133.88;1811735;77;22267;-63
2021/03/15 04:21:34;;;;;;;12.30;7.62;;;;;;;1.24;100.00;100135.97;1813488;77;21133;-64
2021/03/15 04:24:02;;;;;;;17.60;9.05;;;;;;;1.26;100.00;100136.67;1759607;79;21084;-63
2021/03/15 04:26:31;;;;;;;11.48;7.55;;;;;;;1.31;100.00;100133.24;1810060;77;21028;-65
2021/03/15 04:28:59;;;;;;;12.98;8.20;;;;;;;1.33;100.00;100138.61;1808060;77;21067;-65
2021/03/15 04:31:27;;;;;;;13.13;8.00;;;;;;;1.36;100.00;100142.66;1781772;77;23522;-65
2021/03/15 04:33:56;;;;;;;11.55;7.40;;;;;;;1.37;100.00;100141.73;1798900;77;21075;-66
2021/03/15 04:36:23;;;;;;;11.57;6.95;;;;;;;1.38;100.00;100143.36;1811241;77;21099;-65
2021/03/15 04:38:51;;;;;;;12.73;6.85;;;;;;;1.39;100.00;100149.64;1802490;77;21689;-66
2021/03/15 04:41:19;;;;;;;8.98;6.00;;;;;;;1.38;100.00;100139.50;1805682;77;21820;-66
2021/03/15 04:43:48;;;;;;;10.75;6.85;;;;;;;1.38;100.00;100141.59;1805151;77;21340;-66
2021/03/15 04:46:18;;;;;;;14.73;7.47;;;;;;;1.37;100.00;100141.73;1807557;77;21174;-66
2021/03/15 04:48:47;;;;;;;10.63;6.00;;;;;;;1.38;100.00;100139.03;1807106;77;21073;-67
2021/03/15 04:51:17;;;;;;;9.93;5.85;;;;;;;1.36;100.00;100144.75;1808728;77;21238;-68
2021/03/15 04:53:45;;;;;;;8.25;5.30;;;;;;;1.39;100.00;100144.97;1804262;77;21503;-67
2021/03/15 04:56:15;;;;;;;10.75;5.83;;;;;;;1.43;100.00;100143.30;1757094;79;21243;-66
2021/03/15 04:58:48;;;;;;;9.50;5.33;;;;;;;1.48;100.00;100146.80;1763705;79;21658;-69
2021/03/15 05:01:16;;;;;;;9.15;5.40;;;;;;;1.52;100.00;100146.08;1725298;81;21021;-68
2021/03/15 05:03:44;;;;;;;9.28;5.62;;;;;;;1.56;100.00;100144.88;1761812;79;20998;-65
2021/03/15 05:06:12;;;;;;;10.28;5.95;;;;;;;1.57;100.00;100146.03;1752701;79;21194;-67
2021/03/15 05:08:43;;;;;;;11.08;6.97;;;;;;;1.61;100.00;100143.54;1760630;79;21381;-67
2021/03/15 05:11:11;;;;;;;;;;;;;;;1.68;100.00;100145.95;1767548;79;22091;-64
2021/03/15 05:13:40;;;;;;;8.68;5.50;;;;;;;1.76;100.00;100147.88;1759480;79;20223;-66
2021/03/15 05:16:10;;;;;;;9.40;5.95;;;;;;;1.80;100.00;100149.23;1760516;79;21480;-65
2021/03/15 05:18:38;;;;;;;9.45;6.20;;;;;;;1.85;100.00;100150.94;1822668;77;21045;-67
2021/03/15 05:21:07;;;;;;;8.15;5.62;;;;;;;1.89;100.00;100152.78;1823097;77;22567;-67
2021/03/15 05:23:35;;;;;;;9.80;6.35;;;;;;;1.97;100.00;100146.55;1822522;77;21006;-67
2021/03/15 05:26:03;;;;;;;10.68;5.92;;;;;;;2.05;100.00;100146.70;1820053;77;21126;-68
2021/03/15 05:28:33;;;;;;;9.83;6.28;;;;;;;2.15;100.00;100145.42;1821832;77;21577;-69
2021/03/15 05:31:02;;;;;;;9.08;5.60;;;;;;;2.26;100.00;100150.94;1817702;77;20973;-69
2021/03/15 05:33:33;;;;;;;10.78;6.50;;;;;;;2.34;100.00;100151.09;1822070;77;21416;-69
2021/03/15 05:36:00;;;;;;;8.88;5.12;;;;;;;2.41;100.00;100152.19;1793154;78;21594;-69
2021/03/15 05:38:28;;;;;;;9.33;5.37;;;;;;;2.47;100.00;100141.38;1825835;77;21008;-70
2021/03/15 05:40:56;;;;;;;13.30;6.33;;;;;;;2.51;100.00;100144.50;1817397;77;20988;-70
2021/03/15 05:43:33;;;;;;;10.58;7.00;;;;;;;2.57;100.00;100140.89;1789138;77;21232;-70
2021/03/15 05:46:32;;;;;;;9.93;6.15;;;;;;;2.62;100.00;100157.24;1820676;77;21261;-70
2021/03/15 05:49:21;;;;;;;9.95;5.87;;;;;;;2.64;100.00;100145.84;1820639;77;21764;-69
2021/03/15 05:52:09;;;;;;;11.20;5.75;;;;;;;2.65;100.00;100146.66;1819377;77;21171;-69
2021/03/15 05:55:05;;;;;;;11.03;5.50;;;;;;;2.74;100.00;100145.86;1819754;77;21065;-70
2021/03/15 05:58:11;;;;;;;9.35;5.83;;;;;;;2.84;100.00;100148.42;1816118;77;20973;-69
2021/03/15 06:01:08;;;;;;;10.15;5.85;;;;;;;2.91;100.00;100157.23;1816038;77;22184;-70
2021/03/15 06:03:58;;;;;;;8.80;5.20;;;;;;;3.07;100.00;100158.80;1843242;75;21393;-69
2021/03/15 06:06:27;;;;;;;10.50;6.12;;;;;;;3.28;100.00;100159.91;1843448;76;21101;-69
2021/03/15 06:08:59;;;;;;;9.05;5.28;;;;;;;3.45;100.00;100154.55;1858722;75;21348;-69
2021/03/15 06:11:27;;;;;;;9.13;5.30;;;;;;;3.52;100.00;100159.45;1845533;75;20962;-69
2021/03/15 06:13:55;;;;;;;8.98;5.33;;;;;;;3.60;100.00;100151.05;1811499;77;22337;-69
2021/03/15 06:16:25;;;;;;;8.88;5.15;;;;;;;3.72;100.00;100149.11;1837324;76;20922;-69
2021/03/15 06:18:54;;;;;;;10.25;5.55;;;;;;;3.90;100.00;100156.41;1848362;75;21377;-69
2021/03/15 06:21:22;;;;;;;8.13;5.22;;;;;;;4.19;100.00;100158.86;1849634;75;20892;-69
2021/03/15 06:23:50;;;;;;;9.08;5.20;;;;;;;4.38;100.00;100162.61;1845328;75;21572;-69
2021/03/15 06:26:20;;;;;;;10.25;6.47;;;;;;;4.41;100.00;100158.94;1852462;76;21855;-69
2021/03/15 06:28:48;;;;;;;9.98;4.85;;;;;;;4.51;100.00;100164.86;1849860;76;21065;-69
2021/03/15 06:31:16;;;;;;;11.15;6.47;;;;;;;4.79;100.00;100157.86;1847134;76;21099;-69
2021/03/15 06:33:45;;;;;;;9.13;5.62;;;;;;;5.07;100.00;100153.39;1841644;76;20981;-68
2021/03/15 06:36:14;;;;;;;9.18;5.70;;;;;;;5.27;100.00;100154.53;1811354;77;21141;-71
2021/03/15 06:38:43;;;;;;;9.03;5.47;;;;;;;5.16;100.00;100156.06;1745918;80;21129;-70
2021/03/15 06:41:11;;;;;;;10.00;5.20;;;;;;;4.97;100.00;100163.02;1776926;79;21184;-69
2021/03/15 06:43:40;;;;;;;10.48;5.35;;;;;;;4.96;100.00;100157.98;1773007;79;21066;-67
2021/03/15 06:46:07;;;;;;;8.58;5.22;;;;;;;5.12;100.00;100164.11;1775184;78;21082;-67
2021/03/15 06:48:35;;;;;;;9.73;5.25;;;;;;;5.47;100.00;100161.12;1772013;78;21109;-70
2021/03/15 06:51:05;;;;;;;8.25;5.10;;;;;;;5.82;100.00;100150.31;1764444;79;22175;-69
2021/03/15 06:53:37;;;;;;;11.53;6.58;;;;;;;6.27;98.47;100155.70;1776420;79;21149;-70
2021/03/15 06:56:17;;;;;;;10.55;6.33;;;;;;;6.60;95.12;100155.78;1770076;78;21096;-73
2021/03/15 06:58:51;;;;;;;10.90;6.00;;;;;;;6.72;91.06;100146.72;1763716;79;21173;-71
2021/03/15 07:01:27;;;;;;;12.00;7.63;;;;;;;6.81;89.02;100148.34;1772226;78;21433;-72
2021/03/15 07:04:07;;;;;;;9.33;5.90;;;;;;;6.64;84.93;100141.54;1773543;78;21436;-71
2021/03/15 07:06:38;;;;;;;9.77;5.97;;;;;;;6.37;86.06;100146.02;1770214;78;21395;-71
2021/03/15 07:09:15;;;;;;;10.00;6.12;;;;;;;6.32;87.46;100151.65;1778235;78;21237;-69
2021/03/15 07:11:43;;;;;;;8.27;4.80;;;;;;;6.53;86.64;100148.63;1767006;79;20994;-69
2021/03/15 07:14:25;;;;;;;8.53;6.03;;;;;;;6.78;83.55;100144.31;1775742;80;21168;-69
2021/03/15 07:17:00;;;;;;;8.53;5.97;;;;;;;7.07;83.38;100145.09;1782518;78;22152;-71
2021/03/15 07:19:28;;;;;;;10.30;5.70;;;;;;;7.58;81.25;100151.37;1780165;78;21440;-69
2021/03/15 07:21:58;;;;;;;10.67;5.80;;;;;;;7.82;75.32;100153.07;1787332;78;21418;-68
2021/03/15 07:24:30;;;;;;;9.57;6.40;;;;;;;7.90;71.30;100141.85;1767551;79;21280;-69
2021/03/15 07:26:58;;;;;;;11.07;7.10;;;;;;;8.11;70.94;100140.80;1768467;78;21435;-68
2021/03/15 07:29:28;;;;;;;15.97;9.90;;;;;;;8.38;68.44;100142.14;1771752;78;21340;-67
2021/03/15 07:31:56;;;;;;;12.10;7.10;;;;;;;8.39;64.67;100139.05;1834595;75;21394;-68
2021/03/15 07:34:25;;;;;;;8.20;5.50;;;;;;;8.33;66.12;100141.80;1835477;76;21843;-70
2021/03/15 07:36:58;;;;;;;8.47;5.07;;;;;;;8.19;63.88;100143.34;1844079;75;21805;-68
2021/03/15 07:39:31;;;;;;;10.33;5.73;;;;;;;8.19;63.88;100143.34;1769821;79;21613;-68
2021/03/15 07:42:01;;;;;;;9.30;5.33;;;;;;;7.99;64.46;100134.34;1767358;78;21618;-69
2021/03/15 07:44:31;;;;;;;11.00;7.10;;;;;;;7.72;69.27;100126.50;1773370;78;21401;-70
2021/03/15 07:47:03;;;;;;;11.33;7.53;;;;;;;7.72;69.27;100126.50;1766670;78;21577;-68
2021/03/15 07:49:38;;;;;;;10.07;6.97;;;;;;;7.63;68.93;100135.30;1761140;78;21372;-68
2021/03/15 07:52:10;;;;;;;11.53;6.47;;;;;;;7.65;71.66;100130.73;1763100;78;21949;-68
2021/03/15 07:54:44;;;;;;;10.15;6.30;;;;;;;8.16;70.71;100146.28;1771746;78;21409;-68
2021/03/15 07:57:17;;;;;;;12.53;6.80;;;;;;;8.59;65.56;100132.41;1764944;78;21184;-68
2021/03/15 07:59:56;;;;;;;9.63;5.80;;;;;;;9.26;63.91;100117.41;1769493;78;21485;-68
2021/03/15 08:02:27;;;;;;;12.57;8.27;;;;;;;9.48;58.93;100113.93;1782325;78;21743;-68
2021/03/15 08:04:57;;;;;;;12.25;7.05;;;;;;;9.48;58.93;100113.93;1786678;78;21657;-68
2021/03/15 08:07:26;;;;;;;10.10;6.40;;;;;;;9.37;59.61;100118.77;1788467;78;21658;-69
2021/03/15 08:09:56;;;;;;;9.80;5.70;;;;;;;9.26;59.47;100118.22;1787251;78;21840;-69
2021/03/15 08:12:33;;;;;;;8.50;5.33;;;;;;;9.28;58.83;100111.55;1783124;78;21822;-68
2021/03/15 08:15:09;;;;;;;8.90;5.60;;;;;;;9.42;59.64;100088.62;1780508;79;21187;-69
2021/03/15 08:17:40;;;;;;;9.13;6.20;;;;;;;9.58;59.49;100112.84;1786812;78;21829;-70
2021/03/15 08:20:09;;;;;;;8.70;5.80;;;;;;;9.48;59.65;100112.63;1791643;78;22226;-70
2021/03/15 08:22:41;;;;;;;9.13;5.60;;;;;;;9.39;59.89;100108.48;1788783;80;21132;-67
2021/03/15 08:25:10;;;;;;;8.53;5.13;;;;;;;9.36;55.64;100106.27;1808918;78;21850;-70
2021/03/15 08:27:40;;;;;;;8.23;5.07;;;;;;;9.41;55.43;100113.52;1806438;78;21738;-69
2021/03/15 08:30:22;;;;;;;7.90;4.77;;;;;;;9.41;55.43;100113.52;1796759;78;21887;-68
2021/03/15 08:32:49;;;;;;;9.93;6.28;;;;;;;9.45;55.24;100109.08;1808089;78;22285;-69
2021/03/15 08:35:18;;;;;;;12.57;7.33;;;;;;;9.43;57.12;100114.97;1809846;78;21653;-68
2021/03/15 08:38:06;;;;;;;9.83;6.00;;;;;;;9.17;59.15;100122.39;1810134;78;21543;-70
2021/03/15 08:40:48;;;;;;;7.30;5.03;;;;;;;9.01;59.84;100118.92;1808266;78;21963;-68
2021/03/15 08:43:25;;;;;;;11.03;5.63;;;;;;;9.01;59.84;100118.92;1807842;78;21482;-68
2021/03/15 08:46:05;;;;;;;8.40;5.40;;;;;;;8.91;62.95;100114.98;1809341;78;21439;-68
2021/03/15 08:48:44;;;;;;;9.90;6.00;;;;;;;8.82;64.05;100114.22;1813105;78;21485;-69
2021/03/15 08:51:13;;;;;;;8.70;6.00;;;;;;;8.70;62.99;100115.62;1817711;78;21996;-68
2021/03/15 08:53:48;;;;;;;8.53;5.70;;;;;;;8.56;63.67;100123.69;1801142;78;21555;-70
2021/03/15 08:56:25;;;;;;;8.10;5.73;;;;;;;8.57;66.07;100115.41;1810960;78;21779;-68
2021/03/15 08:58:54;;;;;;;14.80;7.30;;;;;;;8.79;66.45;100117.19;1804475;78;21443;-67
2021/03/15 09:01:25;;;;;;;20.33;9.80;;;;;;;8.96;65.37;100108.75;1820099;76;21374;-70
2021/03/15 09:03:58;;;;;;;;;;;;;;;9.31;64.62;100102.56;1817388;76;21401;-68
2021/03/15 09:06:38;;;;;;;10.67;6.30;;;;;;;9.41;64.00;100104.42;1838569;76;20151;-69
2021/03/15 09:09:25;;;;;;;12.73;7.27;;;;;;;9.41;61.39;100101.32;1834000;77;21481;-70
2021/03/15 09:12:02;;;;;;;11.60;6.27;;;;;;;9.25;61.91;100106.70;1824412;76;21449;-69
2021/03/15 09:14:36;;;;;;;12.30;7.13;;;;;;;9.10;64.10;100109.77;1834433;76;21418;-71
2021/03/15 09:17:21;;;;;;;11.03;7.33;;;;;;;9.17;66.49;100112.79;1831951;76;21112;-69
2021/03/15 09:19:50;;;;;;;10.03;6.93;;;;;;;9.28;67.24;100114.63;1832318;76;21498;-71
2021/03/15 09:22:27;;;;;;;9.27;6.43;;;;;;;9.49;61.91;100110.34;1835448;76;22337;-70
2021/03/15 09:24:59;;;;;;;9.73;7.13;;;;;;;9.53;62.82;100109.48;1835524;75;21297;-71
2021/03/15 09:27:36;;;;;;;12.17;7.47;;;;;;;9.57;61.89;100111.23;1806710;77;21212;-71
2021/03/15 09:30:15;;;;;;;12.30;8.07;;;;;;;9.47;63.04;100106.28;1830404;76;21261;-70
2021/03/15 09:32:56;;;;;;;11.80;7.47;;;;;;;9.28;63.96;100101.15;1828499;76;21400;-70
2021/03/15 09:35:32;;;;;;;12.70;8.33;;;;;;;9.16;64.36;100113.75;1836005;76;21231;-70
2021/03/15 09:38:11;;;;;;;18.07;9.33;;;;;;;9.00;68.00;100104.81;1832988;76;21166;-71
2021/03/15 09:40:49;;;;;;;13.10;8.97;;;;;;;9.09;69.15;100103.77;1831357;76;21431;-69
2021/03/15 09:43:24;;;;;;;12.70;9.37;;;;;;;9.18;66.96;100097.49;1836956;76;21079;-69
2021/03/15 09:45:59;;;;;;;13.60;9.57;;;;;;;9.16;69.69;100098.64;1822522;76;22152;-71
2021/03/15 09:48:29;;;;;;;12.00;8.53;;;;;;;9.23;70.25;100091.75;1824343;76;21346;-69
2021/03/15 09:50:59;;;;;;;15.73;9.27;;;;;;;9.39;70.08;100090.77;1781750;78;21367;-68
2021/03/15 09:53:29;;;;;;;10.63;8.53;;;;;;;9.64;67.57;100092.12;1797031;79;21417;-69
2021/03/15 09:56:10;;;;;;;16.13;10.43;;;;;;;9.98;64.64;100085.02;1800128;78;22709;-68
2021/03/15 09:58:43;;;;;;;12.77;9.97;;;;;;;10.02;65.41;100084.66;1792736;79;21014;-68
2021/03/15 10:01:14;;;;;;;14.87;10.27;;;;;;;10.04;65.73;100092.61;1780649;77;21376;-69
2021/03/15 10:04:04;;;;;;;12.83;10.53;;;;;;;10.12;64.06;100078.67;1822290;75;23358;-68
2021/03/15 10:06:34;;;;;;;14.50;9.37;;;;;;;10.27;64.48;100070.34;1800763;76;20918;-69
2021/03/15 10:09:22;;;;;;;13.73;9.83;;;;;;;10.42;62.39;100070.28;1738133;78;21294;-68
2021/03/15 10:11:55;;;;;;;16.10;9.93;;;;;;;10.65;62.40;100077.41;1774046;78;21107;-68
2021/03/15 10:14:27;;;;;;;14.87;10.90;;;;;;;10.83;62.55;100062.59;1805559;78;21267;-69
2021/03/15 10:17:08;;;;;;;15.43;11.50;;;;;;;10.99;60.32;100059.42;1797364;76;21488;-68
2021/03/15 10:19:52;;;;;;;17.03;12.33;;;;;;;11.19;59.62;100045.98;1820601;76;22783;-69
2021/03/15 10:22:21;;;;;;;11.73;9.13;;;;;;;11.22;57.68;100048.22;1776139;79;21013;-69
2021/03/15 10:24:51;;;;;;;15.63;11.77;;;;;;;11.28;56.14;100049.24;1739164;82;21548;-68
2021/03/15 10:27:24;;;;;;;15.10;10.73;;;;;;;11.23;57.31;100045.91;1728230;82;21831;-68
2021/03/15 10:30:00;;;;;;;17.32;11.08;;;;;;;11.25;58.36;100047.84;1744455;81;28493;-69
2021/03/15 10:32:30;;;;;;;20.37;12.97;;;;;;;11.25;59.62;100041.79;1720780;82;21202;-69
2021/03/15 10:35:01;;;;;;;15.90;12.00;;;;;;;11.11;61.23;100052.16;1699351;82;21617;-68
2021/03/15 10:37:32;;;;;;;;;;;;;;;11.11;61.23;100052.16;1720857;82;21770;-69
2021/03/15 10:40:11;;;;;;;16.63;11.27;;;;;;;10.90;61.65;100043.89;1725684;82;20227;-68
2021/03/15 10:42:39;;;;;;;19.52;12.78;;;;;;;10.90;61.65;100043.89;1751176;80;21608;-70
2021/03/15 10:45:11;;;;;;;16.27;11.83;;;;;;;10.91;61.52;100039.47;1747823;80;20935;-71
2021/03/15 10:47:41;;;;;;;15.80;11.47;;;;;;;10.89;63.71;100043.59;1723210;82;21649;-70
2021/03/15 10:50:34;;;;;;;18.53;13.23;;;;;;;10.94;63.13;100043.81;1719174;82;22528;-71
2021/03/15 10:53:22;;;;;;;19.47;12.87;;;;;;;10.98;63.09;100044.74;1831475;77;22308;-70
2021/03/15 10:55:52;;;;;;;19.03;12.17;;;;;;;10.91;65.52;100036.39;1791665;78;21038;-69
2021/03/15 10:58:23;;;;;;;18.10;13.50;;;;;;;10.99;66.03;100024.20;1794918;79;21325;-69
2021/03/15 11:01:02;;;;;;;15.30;11.63;;;;;;;11.12;66.16;100030.29;1787485;79;21104;-70
2021/03/15 11:03:32;;;;;;;16.10;12.27;;;;;;;11.12;68.91;100020.36;1798557;79;21366;-70
2021/03/15 11:06:15;;;;;;;16.73;11.00;;;;;;;11.12;68.91;100020.36;1802103;78;21465;-73
2021/03/15 11:08:57;;;;;;;17.67;12.57;;;;;;;11.26;65.08;100022.05;1792747;79;21531;-70
2021/03/15 11:11:30;;;;;;;23.63;13.37;;;;;;;11.13;64.24;100019.35;1751097;80;21659;-71
2021/03/15 11:14:10;;;;;;;17.02;12.20;;;;;;;10.93;68.77;100011.42;1768476;80;21367;-71
2021/03/15 11:16:42;;;;;;;19.87;13.90;;;;;;;10.83;72.15;100013.05;1748902;80;20978;-70
2021/03/15 11:19:12;;;;;;;18.33;13.30;;;;;;;10.79;74.74;100005.30;1736092;81;21680;-71
2021/03/15 11:21:46;;;;;;;16.47;12.47;;;;;;;10.79;75.66;100017.03;1743166;81;21279;-71
2021/03/15 11:24:28;;;;;;;18.33;12.47;;;;;;;10.84;75.46;100009.46;1738007;81;22235;-69
2021/03/15 11:27:03;;;;;;;16.73;12.33;;;;;;;10.94;74.23;100023.45;1733438;81;21889;-69
2021/03/15 11:29:39;;;;;;;16.20;11.77;;;;;;;10.78;73.04;100004.20;1736553;81;22285;-73
2021/03/15 11:32:19;;;;;;;17.17;11.57;;;;;;;10.82;73.69;100001.02;1817315;78;22847;-73
2021/03/15 11:34:49;;;;;;;18.83;12.47;;;;;;;10.78;72.66;99999.78;1797293;79;21054;-72
2021/03/15 11:37:29;;;;;;;18.17;12.60;;;;;;;10.71;73.08;99991.91;1776663;79;22720;-75
2021/03/15 11:39:58;;;;;;;18.10;13.20;;;;;;;10.60;73.54;100000.25;1794622;79;21354;-72
2021/03/15 11:42:35;;;;;;;16.67;11.60;;;;;;;10.60;73.54;100000.25;1784966;79;21481;-73
2021/03/15 11:45:05;;;;;;;16.77;12.00;;;;;;;10.60;72.33;99995.03;1767881;79;21362;-71
2021/03/15 11:47:34;;;;;;;16.15;11.03;;;;;;;10.56;73.05;99996.41;1781602;79;25054;-72
2021/03/15 11:50:06;;;;;;;15.93;11.60;;;;;;;10.56;71.61;99995.61;1794435;77;22275;-70
2021/03/15 11:52:38;;;;;;;18.62;11.68;;;;;;;10.52;72.68;99990.47;1785569;79;21248;-70
2021/03/15 11:55:10;;;;;;;;;;;;;;;10.55;72.56;99989.59;1796924;79;21642;-71
2021/03/15 11:57:39;;;;;;;16.10;10.95;;;;;;;10.63;73.01;99993.86;1791251;79;20276;-70
2021/03/15 12:00:10;;;;;;;22.33;15.53;;;;;;;10.69;72.73;99993.91;1791997;79;20939;-71
2021/03/15 12:02:48;;;;;;;17.57;12.87;;;;;;;10.68;71.71;99984.97;1792150;79;22514;-71
2021/03/15 12:05:21;;;;;;;21.83;14.17;;;;;;;10.68;70.03;99985.80;1754562;79;21483;-72
2021/03/15 12:07:53;;;;;;;25.03;19.50;;;;;;;10.70;69.61;99986.40;1784533;77;21358;-68
2021/03/15 12:10:21;;;;;;;13.50;9.97;;;;;;;10.68;67.82;99986.27;1776984;79;21536;-71
2021/03/15 12:12:49;;;;;;;16.27;11.47;;;;;;;10.67;67.89;99984.66;1787051;79;21446;-69
2021/03/15 12:15:19;;;;;;;15.03;11.17;;;;;;;10.56;68.28;99976.06;1786864;79;21620;-69
2021/03/15 12:17:48;;;;;;;18.00;11.73;;;;;;;10.45;69.00;99979.98;1781931;79;21454;-68
2021/03/15 12:20:16;;;;;;;15.53;10.27;;;;;;;10.45;69.00;99979.98;1752711;81;21440;-72
2021/03/15 12:23:03;;;;;;;14.90;10.37;;;;;;;10.42;69.19;99975.17;1833996;75;23869;-70
2021/03/15 12:25:37;;;;;;;12.17;9.77;;;;;;;10.33;70.78;99971.88;1805492;76;21614;-69
2021/03/15 12:28:18;;;;;;;16.73;11.03;;;;;;;10.33;70.36;99968.47;1808545;78;23518;-68
2021/03/15 12:30:48;;;;;;;14.80;11.07;;;;;;;10.25;72.86;99969.41;1780828;79;21070;-68
2021/03/15 12:33:16;;;;;;;14.27;10.20;;;;;;;10.30;76.16;99970.95;1785998;79;22255;-69
2021/03/15 12:35:44;;;;;;;16.50;10.00;;;;;;;10.31;74.66;99965.27;1778827;79;21315;-72
2021/03/15 12:38:13;;;;;;;13.83;9.97;;;;;;;10.02;75.23;99963.57;1782895;77;21323;-68
2021/03/15 12:40:41;;;;;;;16.23;11.50;;;;;;;10.02;75.23;99963.57;1794620;79;21884;-68
2021/03/15 12:43:09;;;;;;;13.03;10.20;;;;;;;9.99;78.01;99962.94;1781272;79;21195;-68
2021/03/15 12:45:42;;;;;;;12.30;9.33;;;;;;;9.98;81.31;99965.23;1779745;77;21371;-70
2021/03/15 12:48:10;;;;;;;13.97;10.50;;;;;;;9.95;78.56;99965.61;1801827;77;21227;-67
2021/03/15 12:50:39;;;;;;;12.93;10.30;;;;;;;9.85;76.93;99956.02;1735915;81;21178;-69
2021/03/15 12:53:08;;;;;;;13.70;10.27;;;;;;;9.69;77.28;99961.44;1719919;82;22694;-74
2021/03/15 12:55:52;;;;;;;49.00;26.73;;;;;;;9.60;80.71;99957.34;1728198;81;21114;-66
2021/03/15 12:58:20;;;;;;;23.83;14.97;;;;;;;9.60;82.25;99958.15;1725421;82;22128;-69
2021/03/15 13:00:50;;;;;;;13.47;10.87;;;;;;;9.63;84.92;99951.78;1726802;81;21250;-68
2021/03/15 13:03:22;;;;;;;18.00;11.00;;;;;;;9.63;85.68;99945.27;1745106;81;21440;-66
2021/03/15 13:05:51;;;;;;;15.03;12.47;;;;;;;9.48;86.48;99955.22;1726716;82;21330;-68
2021/03/15 13:08:29;;;;;;;15.50;13.17;;;;;;;9.37;89.41;99956.99;1718864;80;22035;-69
2021/03/15 13:11:13;;;;;;;18.00;13.97;;;;;;;9.34;92.02;99969.05;1809618;77;23425;-70
2021/03/15 13:13:44;;;;;;;23.63;17.87;;;;;;;9.24;93.54;99968.52;1803707;79;21065;-70
2021/03/15 13:16:14;;;;;;;17.73;12.53;;;;;;;9.19;94.59;99946.97;1781879;79;21721;-69
2021/03/15 13:18:41;;;;;;;14.43;10.17;;;;;;;9.18;96.10;99953.66;1779717;79;21386;-69
2021/03/15 13:21:10;;;;;;;13.53;8.73;;;;;;;9.19;94.72;99947.46;1799644;79;21257;-69
2021/03/15 13:23:38;;;;;;;14.70;12.60;;;;;;;9.16;94.52;99947.82;1804394;79;21975;-68
2021/03/15 13:26:07;;;;;;;9.97;8.30;;;;;;;9.12;94.59;99946.57;1791616;78;21118;-70
2021/03/15 13:28:36;;;;;;;11.03;7.43;;;;;;;9.11;94.92;99949.67;1778411;79;22338;-69
2021/03/15 13:31:04;;;;;;;13.73;9.67;;;;;;;9.09;94.99;99965.96;1737826;80;21355;-69
2021/03/15 13:33:34;;;;;;;23.97;16.70;;;;;;;9.04;96.36;99940.17;1727094;81;21732;-68
2021/03/15 13:36:05;;;;;;;11.00;7.50;;;;;;;8.98;95.19;99942.52;1737672;81;21267;-69
2021/03/15 13:38:38;;;;;;;44.40;22.53;;;;;;;8.96;94.10;99941.88;1742077;81;22836;-68
2021/03/15 13:41:07;;;;;;;51.13;26.40;;;;;;;8.93;96.02;99955.23;1730501;82;22283;-67
2021/03/15 13:43:37;;;;;;;38.77;17.37;;;;;;;8.89;96.15;99948.77;1757927;80;21539;-67
2021/03/15 13:46:07;;;;;;;61.88;36.25;;;;;;;8.81;96.62;99935.07;1758797;80;21223;-68
2021/03/15 13:48:37;;;;;;;17.03;13.13;;;;;;;8.74;99.39;99936.27;1731183;81;21220;-68
2021/03/15 13:51:06;;;;;;;31.47;23.43;;;;;;;8.69;100.00;99931.62;1749234;80;21295;-66
2021/03/15 13:53:35;;;;;;;12.77;8.33;;;;;;;8.63;100.00;99933.62;1757957;80;21279;-67
2021/03/15 13:56:13;;;;;;;13.53;8.93;;;;;;;8.63;100.00;99938.02;1807960;78;22392;-67
2021/03/15 13:58:42;;;;;;;12.37;7.57;;;;;;;8.53;100.00;99942.98;1778121;79;21153;-67
2021/03/15 14:01:11;;;;;;;11.90;7.30;;;;;;;8.49;100.00;99944.82;1787378;79;21226;-66
2021/03/15 14:03:51;;;;;;;11.03;7.87;;;;;;;8.45;100.00;99946.16;1778804;79;21224;-67
2021/03/15 14:06:32;;;;;;;13.33;7.67;;;;;;;8.39;100.00;99939.86;1811735;78;23206;-67
2021/03/15 14:09:02;;;;;;;25.68;14.47;;;;;;;8.29;100.00;99943.97;1789751;79;20954;-67
2021/03/15 14:11:31;;;;;;;25.97;18.67;;;;;;;8.25;100.00;99944.50;1730453;82;21276;-67
2021/03/15 14:14:07;;;;;;;19.27;14.47;;;;;;;8.18;100.00;99955.27;1728629;79;21404;-67
2021/03/15 14:16:37;;;;;;;16.75;10.95;;;;;;;8.12;100.00;99959.88;1730760;82;28978;-68
2021/03/15 14:19:07;;;;;;;11.08;7.90;;;;;;;8.05;100.00;99956.66;1719633;82;20943;-68
2021/03/15 14:21:45;;;;;;;11.73;7.77;;;;;;;7.98;100.00;99954.44;1731322;82;20990;-69
2021/03/15 14:24:14;;;;;;;10.68;7.22;;;;;;;7.88;100.00;99952.59;1724896;82;21289;-69
2021/03/15 14:26:44;;;;;;;11.80;8.83;;;;;;;7.78;100.00;99957.98;1740995;81;21140;-68
2021/03/15 14:29:12;;;;;;;14.40;9.83;;;;;;;7.69;100.00;99958.20;1733148;82;21269;-68
2021/03/15 14:31:44;;;;;;;17.25;9.98;;;;;;;7.62;100.00;99968.47;1736741;82;21201;-68
2021/03/15 14:34:20;;;;;;;20.57;11.63;;;;;;;7.57;100.00;99972.05;1733005;81;21202;-68
2021/03/15 14:36:49;;;;;;;14.45;9.33;;;;;;;7.52;100.00;99966.08;1731612;81;21212;-68
2021/03/15 14:39:19;;;;;;;17.00;9.75;;;;;;;7.48;100.00;99964.00;1745058;80;21077;-68
2021/03/15 14:41:48;;;;;;;14.18;8.80;;;;;;;7.42;100.00;99964.17;1720783;82;21204;-68
2021/03/15 14:44:18;;;;;;;15.08;8.10;;;;;;;7.38;100.00;99962.90;1737369;81;21246;-66
2021/03/15 14:46:54;;;;;;;12.53;8.18;;;;;;;7.32;100.00;99967.48;1737454;82;21167;-68
2021/03/15 14:52:12;;;;;;;13.73;8.73;;;;;;;7.22;100.00;99966.38;1813705;76;22493;-66
2021/03/15 14:54:42;;;;;;;14.98;8.83;;;;;;;7.11;100.00;99961.55;1741680;80;21013;-67
2021/03/15 14:57:12;;;;;;;13.00;8.33;;;;;;;7.02;100.00;99971.15;1766095;79;21205;-67
2021/03/15 14:59:39;;;;;;;9.13;8.10;;;;;;;6.93;100.00;99971.33;1753645;79;21045;-67
2021/03/15 15:02:11;;;;;;;13.03;8.80;;;;;;;6.82;100.00;99971.22;1746790;81;21150;-66
2021/03/15 15:04:50;;;;;;;11.60;7.80;;;;;;;6.73;100.00;99969.59;1763831;79;21044;-68
2021/03/15 15:07:22;;;;;;;14.65;7.47;;;;;;;6.63;100.00;99983.20;1740141;80;21394;-70
2021/03/15 15:09:51;;;;;;;12.60;8.10;;;;;;;6.54;100.00;99977.23;1758604;80;21384;-70
2021/03/15 15:12:22;;;;;;;16.20;9.93;;;;;;;6.45;100.00;99975.14;1760185;80;21011;-68
2021/03/15 15:14:54;;;;;;;16.55;9.63;;;;;;;6.38;100.00;99971.59;1768440;79;21098;-68
2021/03/15 15:17:23;;;;;;;27.00;18.02;;;;;;;6.31;100.00;99975.80;1735356;80;21132;-69
2021/03/15 15:19:52;;;;;;;31.05;18.55;;;;;;;6.22;100.00;99984.54;1753763;81;21127;-69
2021/03/15 15:22:23;;;;;;;42.85;28.23;;;;;;;6.16;100.00;99982.58;1752097;81;21366;-68
2021/03/15 15:24:50;;;;;;;21.57;16.50;;;;;;;6.09;100.00;99988.39;1773389;79;21620;-69
2021/03/15 15:27:18;;;;;;;28.83;17.67;;;;;;;6.00;100.00;99993.24;1751587;80;21201;-69
2021/03/15 15:29:48;;;;;;;21.35;13.78;;;;;;;5.89;100.00;99994.81;1767679;79;21677;-69
2021/03/15 15:32:16;;;;;;;18.20;11.10;;;;;;;5.78;100.00;99993.33;1762208;80;21170;-69
2021/03/15 15:34:46;;;;;;;15.85;9.45;;;;;;;5.68;100.00;99995.72;1776279;79;21408;-70
2021/03/15 15:37:15;;;;;;;14.63;8.50;;;;;;;5.57;100.00;99995.55;1775464;79;21212;-69
2021/03/15 15:39:43;;;;;;;16.90;7.70;;;;;;;5.48;100.00;99998.57;1783969;79;21103;-69
2021/03/15 15:42:11;;;;;;;16.77;8.25;;;;;;;5.43;100.00;99996.95;1766573;79;21030;-68
2021/03/15 15:44:39;;;;;;;15.23;8.00;;;;;;;5.36;100.00;100003.70;1738424;81;21117;-68
2021/03/15 15:47:06;;;;;;;18.05;8.55;;;;;;;5.29;100.00;99995.75;1766018;80;21394;-68
2021/03/15 15:49:35;;;;;;;13.55;7.80;;;;;;;5.21;100.00;100005.25;1765739;80;21239;-68
2021/03/15 15:52:03;;;;;;;16.23;8.70;;;;;;;5.13;100.00;100000.85;1749071;79;21221;-68
2021/03/15 15:54:33;;;;;;;18.52;7.03;;;;;;;5.06;100.00;100000.65;1712236;81;22293;-69